Share

Custer, SD

Pleasant Valley Rd. (KSDCUSTE1) Elev 5344 ft | 43.71 °N, 103.69 °W | Change Station

Current weather conditions updated 1 minute ago

Clear
Clear
63.4 °F
Feels Like 63.4 °F
N
6.0
Wind Variable Wind from SW
Gusts 10.0 mph
Sunrise 6:06 AM
Sunset 7:41 PM
Moon Waning Gibbous

Today is forecast to be Much Warmer than yesterday.

Pressure 29.71 in
Visibility 10.0 miles
Clouds Clear
Dew Point 34 °F
Humidity 34%
Rainfall 0.00 in
Snow Depth Not available.
UV 9 out of 16
Pollen 11.20 out of 12
Air Quality Not available.
Flu Activity Sporadic
METAR KCUT 181953Z AUTO 23013G22KT 10SM CLR 17/M01 A2981 RMK AO2 SLP061 T01721011

More Conditions Fewer Conditions

Pressure 29.71 in
Visibility 10.0 miles
Clouds Clear
Dew Point 34 °F
Humidity 34%
Rainfall 0.00 in
Snow Depth Not available.
UV 9 out of 16
Pollen 11.20 out of 12
Air Quality Not available.
Flu Activity Sporadic
METAR KCUT 181953Z AUTO 23013G22KT 10SM CLR 17/M01 A2981 RMK AO2 SLP061 T01721011

More Conditions Fewer Conditions

10-Day Weather Forecast

Almanac

Astronomy

Apr. 18, 2014 Rise Set
Actual Time 6:06 AM MDT 7:41 PM MDT
Civil Twilight 5:36 AM MDT 8:12 PM MDT
Nautical Twilight 5:00 AM MDT 8:48 PM MDT
Astronomical Twilight 4:20 AM MDT 9:28 PM MDT
Moon 11:33 PM MDT 8:26 AM MDT
Length of Visible Light 14h 35m
Length of Day
13h 35m
Tomorrow will be 2m 49s longer.
Waning Gibbous, 86% of the Moon is Illuminated
Today
Waning Gibbous
Apr 22
Last Quarter
Apr 29
New
May 6
First Quarter
May 14
Full

Today's Extremes

State Highs State Lows

Community

  • What's for Lunch?
    What's for Lunch?
  • SUNRISE THROUGH THE TREES.
    SUNRISE THROUGH THE TREES.
  • Dog Wood Blossoms
    Dog Wood Blossoms
  • Morning Light
    Morning Light
  • New Day
    New Day

WunderPhotos

Upload Photos

1,702,481 photos uploaded!

WunderBlogs® & News

Nearby

Snow Depth

Station Depth Elevation
Blind Park 23 in 6890 ft
North Rapid Creek 22 in 6130 ft

Coastal Water Temperatures

Place Temperature
No Stations Reporting

Earthquake Activity

City Distance Mag. Time & Date
No recent earthquake activity has been reported nearby.
Minimum magnitude displayed is 2.5.

Nearby Weather Stations

Station Location Temp. Heat Index Dew Point Humidity Wind Precip. Elev Updated Type
Pleasant Valley Rd., Custer, SD 63.4 °F - 34 °F 34% SW  at  6.0 mph 0.00 in / hr 5344 ft 1:55 PM MDT Normal
Prairie Creek, Rapid City, SD 69.7 °F - 35 °F 28% SE  at  4.0 mph 0.00 in / hr 4544 ft 1:57 PM MDT Rapid Fire
Mike's Place Black Hills, Hermosa, SD 73.4 °F 76 °F 33 °F 23% NW  at  1.0 mph 0.00 in / hr 3990 ft 1:49 PM MDT Normal

Show More Stations Show Fewer Stations

What do you think?

We're not finished. Please let us know what you like, what you don't like, and what you are still missing.